Time;durP1;ratioP1;P1;durP2;ratioP2;P2;SDS_P1;SDS_P2;PMS_P1;PMS_P2;Temp;Humidity;BMP_temperature;BMP_pressure;BME280_temperature;BME280_humidity;BME280_pressure;Samples;Min_cycle;Max_cycle;Signal;HPM_P1;HPM_P2
2021/08/29 00:00:52;;;;;;;19.88;8.30;;;14.50;99.90;;;;;;5073102;28;20033;-71
2021/08/29 00:03:18;;;;;;;10.65;7.45;;;14.40;99.90;;;;;;5055590;28;20036;-70
2021/08/29 00:05:44;;;;;;;11.88;8.10;;;14.40;99.90;;;;;;5073385;28;20522;-71
2021/08/29 00:08:10;;;;;;;17.77;6.80;;;14.40;99.90;;;;;;5073397;28;20082;-73
2021/08/29 00:10:36;;;;;;;12.77;7.82;;;14.40;99.90;;;;;;5055102;28;20070;-72
2021/08/29 00:13:02;;;;;;;11.23;7.85;;;14.50;99.90;;;;;;5073143;28;20032;-71
2021/08/29 00:15:27;;;;;;;8.93;7.60;;;14.40;99.90;;;;;;5055217;28;20024;-71
2021/08/29 00:17:53;;;;;;;13.77;8.30;;;14.40;99.90;;;;;;5073019;28;20531;-72
2021/08/29 00:20:20;;;;;;;10.05;8.25;;;14.50;99.90;;;;;;5072959;28;20048;-71
2021/08/29 00:22:45;;;;;;;13.63;8.20;;;14.50;99.90;;;;;;5072736;28;20027;-73
2021/08/29 00:25:11;;;;;;;12.57;8.18;;;14.50;99.90;;;;;;5054679;28;20036;-72
2021/08/29 00:27:37;;;;;;;9.75;7.65;;;14.50;99.90;;;;;;5054349;28;20028;-71
2021/08/29 00:30:04;;;;;;;8.57;7.70;;;14.50;99.90;;;;;;5072958;28;20032;-72
2021/08/29 00:32:29;;;;;;;12.70;8.25;;;14.50;99.90;;;;;;5055091;28;20029;-70
2021/08/29 00:34:55;;;;;;;14.18;8.50;;;14.50;99.90;;;;;;5055038;28;20054;-71
2021/08/29 00:37:21;;;;;;;9.15;7.88;;;14.50;99.90;;;;;;5055113;28;20408;-71
2021/08/29 00:39:47;;;;;;;18.65;8.60;;;14.50;99.90;;;;;;5073098;28;20487;-70
2021/08/29 00:42:13;;;;;;;8.68;6.72;;;14.50;99.90;;;;;;5073054;28;20035;-70
2021/08/29 00:44:39;;;;;;;14.23;7.72;;;14.50;99.90;;;;;;5072743;28;20078;-72
2021/08/29 00:47:06;;;;;;;14.55;7.75;;;14.50;99.90;;;;;;5072881;28;20082;-70
2021/08/29 00:49:34;;;;;;;10.55;7.20;;;14.50;99.90;;;;;;5072670;28;20029;-72
2021/08/29 00:52:01;;;;;;;8.57;7.00;;;14.50;99.90;;;;;;5054932;28;20111;-72
2021/08/29 00:54:35;;;;;;;8.02;6.28;;;14.40;99.90;;;;;;5072868;28;20043;-71
2021/08/29 00:57:03;;;;;;;13.60;7.25;;;14.40;99.90;;;;;;5054875;28;20036;-71
2021/08/29 00:59:30;;;;;;;8.88;5.95;;;14.40;99.90;;;;;;5072877;28;20025;-71
2021/08/29 01:02:01;;;;;;;8.18;6.00;;;14.40;99.90;;;;;;5072362;28;20465;-71
2021/08/29 01:04:35;;;;;;;9.88;5.35;;;14.40;99.90;;;;;;5072911;28;20130;-70
2021/08/29 01:07:24;;;;;;;6.10;5.32;;;14.40;99.90;;;;;;5072506;28;20112;-69
2021/08/29 01:09:57;;;;;;;7.82;5.13;;;14.40;99.90;;;;;;5054810;28;20032;-70
2021/08/29 01:12:26;;;;;;;5.40;4.90;;;14.40;99.90;;;;;;5072760;28;20052;-70
2021/08/29 01:14:53;;;;;;;7.05;5.15;;;14.50;99.90;;;;;;5072973;28;20572;-71
2021/08/29 01:17:23;;;;;;;7.68;5.68;;;14.50;99.90;;;;;;5072958;28;20381;-70
2021/08/29 01:20:17;;;;;;;7.85;5.85;;;14.50;99.90;;;;;;5054586;28;20477;-70
2021/08/29 01:22:45;;;;;;;5.88;4.82;;;14.50;99.90;;;;;;5058808;28;20124;-71
2021/08/29 01:25:17;;;;;;;9.40;5.80;;;14.50;99.90;;;;;;5072608;28;20025;-69
2021/08/29 01:28:07;;;;;;;12.40;6.13;;;14.40;99.90;;;;;;5072631;28;20036;-68
2021/08/29 01:30:33;;;;;;;7.28;5.88;;;14.40;99.90;;;;;;5076122;28;20400;-68
2021/08/29 01:33:00;;;;;;;11.85;6.45;;;14.40;99.90;;;;;;5076386;28;20029;-69
2021/08/29 01:35:27;;;;;;;11.05;6.63;;;14.40;99.90;;;;;;5076355;28;20028;-69
2021/08/29 01:37:53;;;;;;;11.23;6.97;;;14.40;99.90;;;;;;5075991;28;20490;-68
2021/08/29 01:40:20;;;;;;;7.35;6.40;;;14.40;99.90;;;;;;5076090;28;20544;-68
2021/08/29 01:42:46;;;;;;;8.35;6.07;;;14.40;99.90;;;;;;5076216;28;20356;-68
2021/08/29 01:45:12;;;;;;;9.13;6.13;;;14.30;99.90;;;;;;5057856;28;20029;-68
2021/08/29 01:47:38;;;;;;;6.75;5.75;;;14.30;99.90;;;;;;5076017;28;20078;-69
2021/08/29 01:50:05;;;;;;;5.20;4.70;;;14.30;99.90;;;;;;5075797;28;20036;-68
2021/08/29 01:52:31;;;;;;;6.22;5.35;;;14.20;99.90;;;;;;5058042;28;20032;-67
2021/08/29 01:54:59;;;;;;;11.00;5.22;;;14.20;99.90;;;;;;5075959;28;20029;-69
2021/08/29 01:57:25;;;;;;;5.13;4.63;;;14.10;99.90;;;;;;5075913;28;20035;-68
2021/08/29 01:59:51;;;;;;;10.52;5.57;;;14.00;99.90;;;;;;5075869;28;20024;-70
2021/08/29 02:02:18;;;;;;;7.55;4.35;;;14.00;99.90;;;;;;5075474;28;20158;-69
2021/08/29 02:04:45;;;;;;;6.70;4.63;;;14.00;99.90;;;;;;5075777;28;20029;-69
2021/08/29 02:07:23;;;;;;;9.23;4.75;;;14.00;99.90;;;;;;5075685;28;20028;-70
2021/08/29 02:10:03;;;;;;;7.50;5.00;;;14.00;99.90;;;;;;5075757;28;20068;-69
2021/08/29 02:12:32;;;;;;;5.05;4.63;;;;;;;;;;5075746;28;20086;-69
2021/08/29 02:15:28;;;;;;;5.80;4.53;;;14.00;99.90;;;;;;5075887;28;20115;-70
2021/08/29 02:17:55;;;;;;;5.35;4.60;;;13.90;99.90;;;;;;5075584;28;20024;-71
2021/08/29 02:20:25;;;;;;;8.35;4.43;;;14.00;99.90;;;;;;5075180;28;20032;-71
2021/08/29 02:22:53;;;;;;;4.88;4.45;;;14.00;99.90;;;;;;5075566;28;20029;-69
2021/08/29 02:25:19;;;;;;;5.22;4.72;;;14.00;99.90;;;;;;5075412;28;20020;-71
2021/08/29 02:27:44;;;;;;;8.02;3.90;;;14.00;99.90;;;;;;5075335;28;20029;-69
2021/08/29 02:30:11;;;;;;;7.18;4.15;;;;;;;;;;5075281;28;20469;-71
2021/08/29 02:32:38;;;;;;;6.45;4.53;;;;;;;;;;5075335;28;20028;-71
2021/08/29 02:35:06;;;;;;;8.07;4.70;;;;;;;;;;5057236;28;20082;-70
2021/08/29 02:37:33;;;;;;;6.18;4.85;;;13.90;99.90;;;;;;5075194;28;20032;-70
2021/08/29 02:40:00;;;;;;;5.63;4.93;;;13.80;99.90;;;;;;5074747;28;20400;-71
2021/08/29 02:42:28;;;;;;;4.97;4.20;;;13.90;99.90;;;;;;5074821;28;20441;-70
2021/08/29 02:44:55;;;;;;;5.85;5.20;;;13.80;99.90;;;;;;5075040;28;20025;-70
2021/08/29 02:47:21;;;;;;;6.65;4.88;;;13.80;99.90;;;;;;5056952;28;20039;-69
2021/08/29 02:49:49;;;;;;;6.05;4.57;;;13.80;99.90;;;;;;5075225;28;20111;-70
2021/08/29 02:52:19;;;;;;;7.75;4.55;;;13.80;99.90;;;;;;5074970;28;20469;-70
2021/08/29 02:54:47;;;;;;;8.20;5.30;;;13.80;99.90;;;;;;5074839;28;20056;-69
2021/08/29 02:57:14;;;;;;;8.52;5.65;;;13.80;99.90;;;;;;5074815;28;20032;-68
2021/08/29 02:59:41;;;;;;;5.53;4.97;;;13.80;99.90;;;;;;5074761;28;20024;-70
2021/08/29 03:02:09;;;;;;;7.30;5.05;;;13.90;99.90;;;;;;5053061;28;20100;-69
2021/08/29 03:04:35;;;;;;;5.03;4.53;;;13.90;99.90;;;;;;5054698;28;20369;-70
2021/08/29 03:07:02;;;;;;;5.15;4.65;;;13.90;99.90;;;;;;5054576;28;20033;-69
2021/08/29 03:09:33;;;;;;;5.25;4.75;;;13.90;99.90;;;;;;5053280;28;20060;-69
2021/08/29 03:12:05;;;;;;;6.45;5.20;;;13.80;99.90;;;;;;5054628;28;20048;-70
2021/08/29 03:14:33;;;;;;;6.88;5.65;;;13.80;99.90;;;;;;5054601;28;20408;-70
2021/08/29 03:17:00;;;;;;;7.85;5.53;;;13.90;99.90;;;;;;5054454;28;20025;-70
2021/08/29 03:19:26;;;;;;;8.93;5.45;;;13.90;99.90;;;;;;5053110;28;20112;-69
2021/08/29 03:21:53;;;;;;;10.55;5.32;;;13.90;99.90;;;;;;5054429;28;20025;-69
2021/08/29 03:24:20;;;;;;;11.52;5.50;;;13.90;99.90;;;;;;5054318;28;20049;-70
2021/08/29 03:26:46;;;;;;;5.60;5.10;;;13.90;99.90;;;;;;5054381;28;20020;-70
2021/08/29 03:29:12;;;;;;;7.32;5.88;;;13.90;99.90;;;;;;5054224;28;20104;-69
2021/08/29 03:31:38;;;;;;;7.60;5.68;;;13.90;99.90;;;;;;5054287;28;20025;-68
2021/08/29 03:34:06;;;;;;;5.95;5.38;;;13.90;99.90;;;;;;5054107;28;20033;-68
2021/08/29 03:36:33;;;;;;;8.07;6.05;;;13.90;99.90;;;;;;5052749;28;20048;-69
2021/08/29 03:39:03;;;;;;;7.85;6.55;;;13.90;99.90;;;;;;5054071;28;20025;-68
2021/08/29 03:41:30;;;;;;;9.98;6.95;;;13.90;99.90;;;;;;5053765;28;20771;-69
2021/08/29 03:43:56;;;;;;;7.28;6.47;;;14.00;99.90;;;;;;5052696;28;20469;-69
2021/08/29 03:46:23;;;;;;;11.52;6.25;;;14.00;99.90;;;;;;5053758;28;20047;-69
2021/08/29 03:48:49;;;;;;;7.57;6.75;;;14.00;99.90;;;;;;5053874;28;20492;-69
2021/08/29 03:51:16;;;;;;;7.68;6.45;;;13.90;99.90;;;;;;5053539;28;20032;-71
2021/08/29 03:53:43;;;;;;;9.07;6.53;;;14.00;99.90;;;;;;5052522;28;20036;-70
2021/08/29 03:56:10;;;;;;;7.15;6.45;;;14.00;99.90;;;;;;5053735;28;20060;-70
2021/08/29 03:58:40;;;;;;;8.73;7.25;;;14.00;99.90;;;;;;5053713;28;20431;-69
2021/08/29 04:01:06;;;;;;;11.30;7.93;;;14.00;99.90;;;;;;5054846;28;20171;-69
2021/08/29 04:03:32;;;;;;;7.55;6.70;;;14.00;99.90;;;;;;5055626;28;20028;-72
2021/08/29 04:06:03;;;;;;;8.10;6.85;;;14.00;99.90;;;;;;5055459;28;20063;-73
2021/08/29 04:08:36;;;;;;;9.80;7.10;;;14.00;99.90;;;;;;5073511;28;20039;-72
2021/08/29 04:11:03;;;;;;;8.27;6.93;;;14.00;99.90;;;;;;5073500;28;20093;-72
2021/08/29 04:13:30;;;;;;;8.18;7.25;;;14.00;99.90;;;;;;5073695;28;20028;-72
2021/08/29 04:15:57;;;;;;;11.13;7.65;;;14.00;99.90;;;;;;5073338;28;20028;-73
2021/08/29 04:18:23;;;;;;;8.23;7.43;;;14.00;99.90;;;;;;5073348;28;20474;-72
2021/08/29 04:20:53;;;;;;;9.23;7.82;;;14.00;99.90;;;;;;5073283;28;20029;-72
2021/08/29 04:23:19;;;;;;;9.02;7.43;;;14.00;99.90;;;;;;5073250;28;20035;-72
2021/08/29 04:25:46;;;;;;;12.27;8.05;;;14.00;99.90;;;;;;5073088;28;20039;-69
2021/08/29 04:28:12;;;;;;;8.52;7.72;;;14.10;99.90;;;;;;5055270;28;20032;-70
2021/08/29 04:30:38;;;;;;;8.63;7.45;;;14.00;99.90;;;;;;5073395;28;20111;-71
2021/08/29 04:33:04;;;;;;;13.50;7.07;;;14.00;99.90;;;;;;5073511;28;20035;-69
2021/08/29 04:35:31;;;;;;;11.00;8.00;;;14.00;99.90;;;;;;5072794;28;20025;-69
2021/08/29 04:37:57;;;;;;;11.05;8.10;;;14.00;99.90;;;;;;5073316;28;20025;-70
2021/08/29 04:40:22;;;;;;;9.25;8.15;;;14.00;99.90;;;;;;5055065;28;20120;-70
2021/08/29 04:42:48;;;;;;;10.98;7.45;;;;;;;;;;5073039;28;20020;-70
2021/08/29 04:45:15;;;;;;;11.48;8.65;;;;;;;;;;5073020;28;20062;-70
2021/08/29 04:47:41;;;;;;;9.88;7.93;;;;;;;;;;5072931;28;20067;-71
2021/08/29 04:50:07;;;;;;;13.93;8.77;;;;;;;;;;5072950;28;20020;-70
2021/08/29 04:52:33;;;;;;;9.88;8.88;;;;;;;;;;5073251;28;20036;-70
2021/08/29 04:54:59;;;;;;;10.73;8.68;;;;;;;;;;5054867;28;20028;-69
2021/08/29 04:57:25;;;;;;;11.95;8.90;;;;;;;;;;5072876;28;20430;-70
2021/08/29 04:59:52;;;;;;;10.23;8.77;;;;;;;;;;5072624;28;20525;-71
2021/08/29 05:02:18;;;;;;;12.32;8.20;;;;;;;;;;5072439;28;20136;-71
2021/08/29 05:04:44;;;;;;;13.27;9.43;;;;;;;;;;5057457;28;20530;-69
2021/08/29 05:07:10;;;;;;;15.48;9.85;;;;;;;;;;5076523;28;20031;-69
2021/08/29 05:09:36;;;;;;;11.15;9.10;;;;;;;;;;5076880;28;20039;-70
2021/08/29 05:12:02;;;;;;;12.48;9.90;;;;;;;;;;5058829;28;20492;-70
2021/08/29 05:14:29;;;;;;;10.55;9.40;;;;;;;;;;5076572;28;20048;-70
2021/08/29 05:16:54;;;;;;;10.77;9.68;;;14.00;99.90;;;;;;5076692;28;20549;-70
2021/08/29 05:19:20;;;;;;;11.73;10.15;;;14.20;99.90;;;;;;5076418;28;20124;-70
2021/08/29 05:21:46;;;;;;;12.90;10.40;;;14.10;99.90;;;;;;5058676;28;20116;-72
2021/08/29 05:24:12;;;;;;;12.48;10.15;;;14.10;99.90;;;;;;5076654;28;20454;-69
2021/08/29 05:26:38;;;;;;;13.30;10.18;;;14.10;99.90;;;;;;5076467;28;20040;-69
2021/08/29 05:29:03;;;;;;;12.55;9.75;;;14.10;99.90;;;;;;5076749;28;20033;-71
2021/08/29 05:31:29;;;;;;;16.17;10.77;;;14.10;99.90;;;;;;5076675;28;20461;-71
2021/08/29 05:33:55;;;;;;;11.70;9.70;;;14.10;99.90;;;;;;5076374;28;20029;-71
2021/08/29 05:36:21;;;;;;;12.02;9.95;;;14.10;99.90;;;;;;5076301;28;20036;-71
2021/08/29 05:38:47;;;;;;;11.88;8.27;;;14.20;99.90;;;;;;5058287;28;20036;-72
2021/08/29 05:41:13;;;;;;;14.27;8.98;;;14.20;99.90;;;;;;5076180;28;20032;-70
2021/08/29 05:43:38;;;;;;;10.23;9.23;;;14.30;99.90;;;;;;5076547;28;20032;-70
2021/08/29 05:46:04;;;;;;;13.05;9.05;;;14.40;99.90;;;;;;5058148;28;20086;-71
2021/08/29 05:48:31;;;;;;;10.70;8.52;;;14.30;99.90;;;;;;5057882;28;20032;-70
2021/08/29 05:50:57;;;;;;;9.55;8.18;;;14.40;99.90;;;;;;5076033;28;20031;-68
2021/08/29 05:53:23;;;;;;;9.85;8.93;;;14.40;99.90;;;;;;5058070;28;20028;-72
2021/08/29 05:55:48;;;;;;;11.05;7.82;;;14.40;99.90;;;;;;5075943;28;20036;-71
2021/08/29 05:58:14;;;;;;;10.15;8.48;;;14.40;99.90;;;;;;5075889;28;20048;-70
2021/08/29 06:00:40;;;;;;;10.63;8.32;;;14.40;99.90;;;;;;5075569;28;20029;-74
2021/08/29 06:03:06;;;;;;;9.63;8.05;;;14.40;99.90;;;;;;5057709;28;20508;-68
2021/08/29 06:05:32;;;;;;;10.15;8.80;;;14.50;99.90;;;;;;5057744;28;20032;-75
2021/08/29 06:07:59;;;;;;;10.15;8.77;;;14.40;99.90;;;;;;5057688;28;20032;-70
2021/08/29 06:10:25;;;;;;;9.20;8.27;;;14.40;99.90;;;;;;5075680;28;20082;-69
2021/08/29 06:12:51;;;;;;;10.60;9.23;;;14.40;99.90;;;;;;5057743;28;20029;-71
2021/08/29 06:15:17;;;;;;;16.20;9.05;;;14.40;99.90;;;;;;5056993;28;20025;-69
2021/08/29 06:17:43;;;;;;;11.52;9.13;;;14.50;99.90;;;;;;5075619;28;20465;-71
2021/08/29 06:20:09;;;;;;;9.00;8.10;;;14.50;99.90;;;;;;5081217;28;20085;-72
2021/08/29 06:22:35;;;;;;;11.75;9.02;;;14.50;99.90;;;;;;5077448;28;20376;-70
2021/08/29 06:25:01;;;;;;;11.75;8.88;;;14.50;99.90;;;;;;5095732;28;20024;-68
2021/08/29 06:27:27;;;;;;;9.77;8.57;;;14.50;99.90;;;;;;5068283;28;20066;-74
2021/08/29 06:29:52;;;;;;;13.73;9.57;;;14.40;99.90;;;;;;5095555;28;20081;-71
2021/08/29 06:32:18;;;;;;;12.82;10.05;;;14.40;99.90;;;;;;5076496;28;20043;-73
2021/08/29 06:34:44;;;;;;;10.40;9.20;;;14.40;99.90;;;;;;5077306;28;20456;-70
2021/08/29 06:37:10;;;;;;;10.88;9.75;;;14.30;99.90;;;;;;5095756;28;20042;-70
2021/08/29 06:39:36;;;;;;;15.20;10.02;;;14.30;99.90;;;;;;5095408;28;20047;-72
2021/08/29 06:42:03;;;;;;;10.45;9.38;;;14.30;99.90;;;;;;5077166;28;20440;-71
2021/08/29 06:44:39;;;;;;;12.00;10.57;;;14.20;99.90;;;;;;5095422;28;20112;-71
2021/08/29 06:47:05;;;;;;;11.05;9.88;;;14.20;99.90;;;;;;5077070;28;20035;-70
2021/08/29 06:49:31;;;;;;;12.48;9.95;;;14.20;99.90;;;;;;5095240;28;20457;-73
2021/08/29 06:51:56;;;;;;;10.23;9.13;;;14.20;99.90;;;;;;5076960;28;20480;-70
2021/08/29 06:54:22;;;;;;;12.10;9.60;;;14.20;99.90;;;;;;5095439;28;20028;-71
2021/08/29 06:56:48;;;;;;;11.43;9.57;;;14.20;99.90;;;;;;5095093;28;20032;-71
2021/08/29 06:59:14;;;;;;;11.93;10.40;;;14.20;99.90;;;;;;5094986;28;20461;-71
2021/08/29 07:01:40;;;;;;;12.93;10.63;;;14.20;99.90;;;;;;5076520;28;20048;-72
2021/08/29 07:04:05;;;;;;;13.32;10.18;;;14.20;99.90;;;;;;5095206;28;20028;-72
2021/08/29 07:06:31;;;;;;;12.80;8.90;;;14.30;99.90;;;;;;5069455;28;20260;-73
2021/08/29 07:08:57;;;;;;;10.30;9.25;;;14.30;99.90;;;;;;5077185;28;20036;-71
2021/08/29 07:11:23;;;;;;;11.63;9.15;;;14.40;99.90;;;;;;5074584;28;20438;-69
2021/08/29 07:13:49;;;;;;;12.18;10.48;;;14.40;99.90;;;;;;5073982;28;20074;-72
2021/08/29 07:16:15;;;;;;;10.32;9.20;;;14.40;99.90;;;;;;5074483;28;20036;-70
2021/08/29 07:18:40;;;;;;;14.82;10.15;;;14.50;99.90;;;;;;5074445;28;20028;-70
2021/08/29 07:21:06;;;;;;;17.25;13.38;;;14.50;99.90;;;;;;5056405;28;20575;-71
2021/08/29 07:23:32;;;;;;;27.05;17.92;;;14.50;99.90;;;;;;5074366;28;20043;-70
2021/08/29 07:25:58;;;;;;;11.52;10.27;;;14.50;99.90;;;;;;5073473;28;20491;-69
2021/08/29 07:28:24;;;;;;;10.55;9.43;;;14.60;99.90;;;;;;5056063;28;20032;-70
2021/08/29 07:30:50;;;;;;;11.82;10.20;;;14.60;99.90;;;;;;5074170;28;20081;-71
2021/08/29 07:33:16;;;;;;;12.15;10.85;;;14.70;99.90;;;;;;5074128;28;20453;-69
2021/08/29 07:35:41;;;;;;;13.68;11.73;;;14.80;99.90;;;;;;5074161;28;20032;-71
2021/08/29 07:38:07;;;;;;;12.63;10.77;;;14.90;99.90;;;;;;5074287;28;20373;-72
2021/08/29 07:40:33;;;;;;;11.40;10.20;;;15.00;99.90;;;;;;5055976;28;20024;-71
2021/08/29 07:42:59;;;;;;;9.60;8.70;;;15.10;99.90;;;;;;5073644;28;20032;-70
2021/08/29 07:45:26;;;;;;;10.93;9.23;;;15.20;99.90;;;;;;5073951;28;20028;-70
2021/08/29 07:47:53;;;;;;;10.57;9.50;;;15.40;99.90;;;;;;5073761;28;20034;-71
2021/08/29 07:50:20;;;;;;;11.23;8.65;;;15.70;99.90;;;;;;5055785;28;20491;-72
2021/08/29 07:52:46;;;;;;;9.07;7.95;;;15.90;99.90;;;;;;5055568;28;20024;-71
2021/08/29 07:55:12;;;;;;;8.02;7.00;;;15.90;99.90;;;;;;5055745;28;20036;-69
2021/08/29 07:57:38;;;;;;;9.82;8.35;;;15.90;99.90;;;;;;5055671;28;20024;-71
2021/08/29 08:00:05;;;;;;;7.82;6.57;;;16.00;99.90;;;;;;5073401;28;20477;-70
2021/08/29 08:02:31;;;;;;;9.77;8.10;;;16.10;99.90;;;;;;5065305;28;20048;-70
2021/08/29 08:04:57;;;;;;;8.07;6.55;;;16.20;99.90;;;;;;5075547;28;20028;-67
2021/08/29 08:07:23;;;;;;;7.00;6.25;;;16.30;99.90;;;;;;5075268;28;20059;-70
2021/08/29 08:09:49;;;;;;;8.13;6.57;;;16.30;99.90;;;;;;5075457;28;20491;-69
2021/08/29 08:12:15;;;;;;;8.95;7.25;;;16.40;99.90;;;;;;5090517;28;20021;-70
2021/08/29 08:14:41;;;;;;;5.93;5.53;;;16.70;99.90;;;;;;5088961;28;20036;-69
2021/08/29 08:17:07;;;;;;;6.57;5.97;;;16.70;99.90;;;;;;5093270;28;20031;-69
2021/08/29 08:19:33;;;;;;;6.03;5.28;;;16.60;99.90;;;;;;5093470;28;20047;-70
2021/08/29 08:22:01;;;;;;;6.07;5.57;;;16.50;99.90;;;;;;5075242;28;20508;-71
2021/08/29 08:24:26;;;;;;;7.25;6.53;;;16.50;99.90;;;;;;5093835;28;20016;-69
2021/08/29 08:26:52;;;;;;;6.15;5.55;;;16.60;99.90;;;;;;5093352;28;20039;-70
2021/08/29 08:29:18;;;;;;;6.40;5.75;;;16.70;99.90;;;;;;5093398;28;20433;-71
2021/08/29 08:31:44;;;;;;;6.10;5.28;;;16.70;99.90;;;;;;5093333;28;20099;-71
2021/08/29 08:34:10;;;;;;;7.50;5.28;;;16.90;99.90;;;;;;5093620;28;20103;-71
2021/08/29 08:36:36;;;;;;;4.97;4.57;;;17.10;99.90;;;;;;5093326;28;20111;-71
2021/08/29 08:39:02;;;;;;;5.30;4.80;;;17.20;99.90;;;;;;5074882;28;20024;-71
2021/08/29 08:41:28;;;;;;;5.47;4.97;;;17.40;99.90;;;;;;5092978;28;20109;-70
2021/08/29 08:43:55;;;;;;;8.43;5.55;;;17.20;99.90;;;;;;5092972;28;20024;-69
2021/08/29 08:46:22;;;;;;;5.95;5.38;;;17.00;99.90;;;;;;5072538;28;20483;-71
2021/08/29 08:48:51;;;;;;;5.65;5.15;;;16.90;99.90;;;;;;5091223;28;20052;-69
2021/08/29 08:51:24;;;;;;;5.40;4.90;;;17.00;99.90;;;;;;5092441;28;20030;-69
2021/08/29 08:53:53;;;;;;;5.57;5.00;;;16.70;99.90;;;;;;5075492;28;20028;-65
2021/08/29 08:56:20;;;;;;;6.70;5.53;;;16.50;99.90;;;;;;5074625;28;20120;-68
2021/08/29 08:58:47;;;;;;;5.03;4.53;;;16.60;99.90;;;;;;5092960;28;20059;-66
2021/08/29 09:01:14;;;;;;;5.80;5.07;;;16.70;99.90;;;;;;5092727;28;20028;-66
2021/08/29 09:03:41;;;;;;;5.30;4.80;;;16.70;99.90;;;;;;5093005;28;20036;-67
2021/08/29 09:06:08;;;;;;;6.00;5.45;;;16.80;99.90;;;;;;5092769;28;20036;-67
2021/08/29 09:08:35;;;;;;;6.68;5.68;;;16.70;99.90;;;;;;5089191;28;20464;-67
2021/08/29 09:11:02;;;;;;;5.78;5.28;;;16.60;99.90;;;;;;5074943;28;20133;-65
2021/08/29 09:13:48;;;;;;;6.50;5.90;;;16.60;99.90;;;;;;5091660;28;20027;-71
2021/08/29 09:16:17;;;;;;;5.30;4.80;;;16.60;99.90;;;;;;5091598;28;20405;-68
2021/08/29 09:18:59;;;;;;;6.05;5.20;;;16.70;99.90;;;;;;5092800;28;20024;-67
2021/08/29 09:21:28;;;;;;;5.68;5.15;;;16.70;99.90;;;;;;5092811;28;20077;-68
2021/08/29 09:23:55;;;;;;;6.07;5.45;;;16.70;99.90;;;;;;5092725;28;20519;-68
2021/08/29 09:26:23;;;;;;;6.72;5.47;;;16.70;99.90;;;;;;5092618;28;20028;-69
2021/08/29 09:28:50;;;;;;;6.50;5.70;;;16.60;99.90;;;;;;5093031;28;20024;-70
2021/08/29 09:31:19;;;;;;;5.53;4.93;;;16.50;99.90;;;;;;5092615;28;20024;-69
2021/08/29 09:33:59;;;;;;;9.38;5.30;;;16.40;99.90;;;;;;5092227;28;20111;-68
2021/08/29 09:36:33;;;;;;;5.82;5.32;;;16.40;99.90;;;;;;5074100;28;20027;-67
2021/08/29 09:39:14;;;;;;;6.47;5.88;;;16.50;99.90;;;;;;5092608;28;20027;-69
2021/08/29 09:41:40;;;;;;;5.80;5.30;;;16.60;99.90;;;;;;5068473;28;20029;-67
2021/08/29 09:44:20;;;;;;;6.40;5.30;;;16.50;99.90;;;;;;5081048;28;20146;-67
2021/08/29 09:46:53;;;;;;;6.45;5.85;;;16.40;99.90;;;;;;5080833;28;20074;-66
2021/08/29 09:49:27;;;;;;;6.10;5.57;;;16.30;99.90;;;;;;5081597;28;20107;-67
2021/08/29 09:51:55;;;;;;;6.93;6.28;;;16.20;99.90;;;;;;5085606;28;20062;-67
2021/08/29 09:54:33;;;;;;;7.03;6.43;;;16.10;99.90;;;;;;5084530;28;20095;-67
2021/08/29 09:57:04;;;;;;;6.70;6.00;;;16.10;99.90;;;;;;5057699;28;20028;-68
2021/08/29 09:59:37;;;;;;;7.22;6.53;;;16.20;99.90;;;;;;5058031;28;20028;-68
2021/08/29 10:02:04;;;;;;;7.65;6.90;;;16.20;99.90;;;;;;5075335;28;20056;-68
2021/08/29 10:04:30;;;;;;;7.05;6.38;;;16.30;99.90;;;;;;5076004;28;20020;-67
2021/08/29 10:07:08;;;;;;;6.90;6.00;;;16.20;99.90;;;;;;5075478;28;20101;-66
2021/08/29 10:09:33;;;;;;;6.97;6.13;;;16.10;99.90;;;;;;5075672;28;20062;-71
2021/08/29 10:12:01;;;;;;;7.80;6.32;;;16.10;99.90;;;;;;5075521;28;20450;-68
2021/08/29 10:14:28;;;;;;;6.75;6.10;;;16.10;99.90;;;;;;5060754;28;20020;-69
2021/08/29 10:16:55;;;;;;;6.60;6.10;;;16.00;99.90;;;;;;5095068;28;20032;-69
2021/08/29 10:19:21;;;;;;;6.38;5.78;;;15.90;99.90;;;;;;5095637;28;20103;-69
2021/08/29 10:21:48;;;;;;;11.05;5.88;;;15.90;99.90;;;;;;5077305;28;20162;-68
2021/08/29 10:24:15;;;;;;;8.60;6.63;;;15.90;99.90;;;;;;5095402;28;20446;-68
2021/08/29 10:26:43;;;;;;;8.68;7.03;;;15.80;99.90;;;;;;5077239;28;20028;-68
2021/08/29 10:29:17;;;;;;;7.35;6.47;;;15.80;99.90;;;;;;5095504;28;20024;-68
2021/08/29 10:31:56;;;;;;;8.57;7.18;;;15.70;99.90;;;;;;5095534;28;20028;-67
2021/08/29 10:34:22;;;;;;;9.35;7.35;;;15.70;99.90;;;;;;5095811;28;20027;-65
2021/08/29 10:36:49;;;;;;;7.10;6.25;;;15.70;99.90;;;;;;5095198;28;20028;-66
2021/08/29 10:39:15;;;;;;;7.03;6.32;;;15.70;99.90;;;;;;5095350;28;20028;-66
2021/08/29 10:41:42;;;;;;;6.80;6.10;;;15.80;99.90;;;;;;5095320;28;20085;-66
2021/08/29 10:44:09;;;;;;;8.77;6.80;;;15.90;99.90;;;;;;5094886;28;20349;-67
2021/08/29 10:46:43;;;;;;;8.13;6.90;;;16.00;99.90;;;;;;5095174;28;20475;-67
2021/08/29 10:49:09;;;;;;;9.27;8.20;;;16.10;99.90;;;;;;5095286;28;20028;-68
2021/08/29 10:51:35;;;;;;;11.30;6.43;;;16.30;99.90;;;;;;5095138;28;20028;-67
2021/08/29 10:54:09;;;;;;;9.05;5.57;;;16.40;99.90;;;;;;5094992;28;20024;-67
2021/08/29 10:56:35;;;;;;;7.07;6.47;;;16.50;99.90;;;;;;5094821;28;20035;-68
2021/08/29 10:59:07;;;;;;;7.25;6.55;;;16.50;99.90;;;;;;5076790;28;20024;-67
2021/08/29 11:01:40;;;;;;;6.40;5.80;;;16.50;99.90;;;;;;5094554;28;20100;-66
2021/08/29 11:04:21;;;;;;;6.57;5.97;;;16.60;99.90;;;;;;5076316;28;20076;-68
2021/08/29 11:06:48;;;;;;;8.93;5.82;;;16.70;99.90;;;;;;5094736;28;20028;-67
2021/08/29 11:09:34;;;;;;;5.63;5.13;;;17.00;99.90;;;;;;5094639;28;20036;-67
2021/08/29 11:12:01;;;;;;;6.82;6.10;;;17.50;99.90;;;;;;5094651;28;20049;-66
2021/08/29 11:14:47;;;;;;;6.20;5.60;;;17.60;99.90;;;;;;5070302;28;20063;-68
2021/08/29 11:17:21;;;;;;;5.85;4.68;;;17.30;99.90;;;;;;5094641;28;20035;-68
2021/08/29 11:19:50;;;;;;;7.10;6.30;;;16.90;99.90;;;;;;5094645;28;20465;-67
2021/08/29 11:22:20;;;;;;;6.22;5.57;;;16.70;99.90;;;;;;5092740;28;20020;-67
2021/08/29 11:25:00;;;;;;;7.97;5.82;;;16.50;99.90;;;;;;5094365;28;20024;-67
2021/08/29 11:27:38;;;;;;;9.25;6.72;;;16.50;99.90;;;;;;5094478;28;20085;-66
2021/08/29 11:30:09;;;;;;;7.05;6.38;;;16.40;99.90;;;;;;5067577;28;20508;-66
2021/08/29 11:32:44;;;;;;;8.70;6.50;;;16.30;99.90;;;;;;5073843;28;20078;-65
2021/08/29 11:35:32;;;;;;;8.77;6.97;;;16.10;99.90;;;;;;5074326;28;20031;-64
2021/08/29 11:38:33;;;;;;;6.43;5.82;;;15.90;99.90;;;;;;5073858;28;20032;-65
2021/08/29 11:41:13;;;;;;;6.10;5.43;;;15.70;99.90;;;;;;5073924;28;20025;-64
2021/08/29 11:43:48;;;;;;;6.45;5.85;;;15.60;99.90;;;;;;5073407;28;20476;-64
2021/08/29 11:46:18;;;;;;;6.30;5.75;;;15.70;99.90;;;;;;5073759;28;20032;-64
2021/08/29 11:48:56;;;;;;;7.72;6.10;;;15.80;99.90;;;;;;5055794;28;20035;-64
2021/08/29 11:51:28;;;;;;;9.70;7.60;;;15.90;99.90;;;;;;5073798;28;20036;-64
2021/08/29 11:53:55;;;;;;;8.52;7.22;;;15.90;99.90;;;;;;5073253;28;20498;-64
2021/08/29 11:56:29;;;;;;;9.45;8.00;;;15.80;99.90;;;;;;5073624;28;20021;-64
2021/08/29 11:58:56;;;;;;;7.50;6.80;;;15.70;99.90;;;;;;5073632;28;20035;-64
2021/08/29 12:01:23;;;;;;;8.75;7.65;;;15.60;99.90;;;;;;5053033;28;20051;-64
2021/08/29 12:03:53;;;;;;;9.60;8.50;;;15.40;99.90;;;;;;5073413;28;20032;-64
2021/08/29 12:06:48;;;;;;;7.97;7.28;;;15.30;99.90;;;;;;5073414;28;20024;-64
2021/08/29 12:09:26;;;;;;;8.10;6.68;;;15.20;99.90;;;;;;5073387;28;20054;-65
2021/08/29 12:11:54;;;;;;;9.13;8.10;;;15.10;99.90;;;;;;5056661;28;20049;-68
2021/08/29 12:14:28;;;;;;;11.35;8.25;;;15.10;99.90;;;;;;5054783;28;20448;-69
2021/08/29 12:17:00;;;;;;;9.60;8.63;;;15.10;99.90;;;;;;5073282;28;20058;-68
2021/08/29 12:19:32;;;;;;;8.65;7.80;;;15.10;99.90;;;;;;5055202;28;20127;-72
2021/08/29 12:22:00;;;;;;;9.65;8.70;;;15.10;99.90;;;;;;5072910;28;20099;-68
2021/08/29 12:24:32;;;;;;;9.75;8.75;;;15.10;99.90;;;;;;5073278;28;20100;-68
2021/08/29 12:26:59;;;;;;;9.55;8.63;;;15.10;99.90;;;;;;5073026;28;20086;-67
2021/08/29 12:29:25;;;;;;;10.35;9.25;;;15.10;99.90;;;;;;5054915;28;20029;-68
2021/08/29 12:31:51;;;;;;;9.75;8.73;;;15.10;99.90;;;;;;5072915;28;20074;-67
2021/08/29 12:34:27;;;;;;;11.52;9.80;;;15.20;99.90;;;;;;5054896;28;20027;-66
2021/08/29 12:37:12;;;;;;;11.63;9.70;;;15.20;99.90;;;;;;5054761;28;20515;-67
2021/08/29 12:39:39;;;;;;;11.07;9.40;;;15.30;99.90;;;;;;5054896;28;20484;-67
2021/08/29 12:42:15;;;;;;;9.93;8.93;;;15.30;99.90;;;;;;5072588;28;20028;-68
2021/08/29 12:44:40;;;;;;;12.02;10.15;;;15.30;99.90;;;;;;5072903;28;20033;-65
2021/08/29 12:47:07;;;;;;;9.90;8.88;;;15.40;99.90;;;;;;5054874;28;20132;-65
2021/08/29 12:49:32;;;;;;;10.48;9.00;;;15.50;99.90;;;;;;5072816;28;20028;-67
2021/08/29 12:51:59;;;;;;;10.88;9.82;;;15.50;99.90;;;;;;5054668;28;20082;-67
2021/08/29 12:54:25;;;;;;;10.68;8.48;;;15.50;99.90;;;;;;5054562;28;20025;-69